Time,TemperatureF,DewpointF,PressureIn,WindDirection,WindDirectionDegrees,WindSpeedMPH,WindSpeedGustMPH,Humidity,HourlyPrecipIn,Conditions,Clouds,dailyrainin,SoftwareType,DateUTC
2013-05-22 00:02:00,67.8,58.8,29.86,North,0,0.0,0.0,74,0.00,,,0.00,WUHU216HW,2013-05-22 05:02:00,
2013-05-22 00:50:00,67.2,59.0,29.87,North,0,0.0,0.0,74,0.00,,,0.00,WUHU216HW,2013-05-22 05:50:00,
2013-05-22 00:55:00,67.2,59.0,29.87,North,0,0.0,0.0,74,0.00,,,0.00,WUHU216HW,2013-05-22 05:55:00,
2013-05-22 01:00:00,67.2,59.0,29.87,North,0,0.0,0.0,74,0.00,,,0.00,WUHU216HW,2013-05-22 06:00:00,
2013-05-22 01:05:00,67.2,59.0,29.87,North,0,0.0,0.0,74,0.00,,,0.00,WUHU216HW,2013-05-22 06:05:00,
2013-05-22 01:10:00,67.2,59.0,29.87,North,0,0.0,0.0,73,0.00,,,0.00,WUHU216HW,2013-05-22 06:10:00,
2013-05-22 01:15:00,67.2,59.0,29.87,North,0,0.0,0.0,72,0.00,,,0.00,WUHU216HW,2013-05-22 06:15:00,
2013-05-22 01:20:00,67.2,59.0,29.87,North,0,0.0,0.0,72,0.00,,,0.00,WUHU216HW,2013-05-22 06:20:00,
2013-05-22 01:25:00,66.9,57.2,29.87,North,0,0.0,0.0,71,0.00,,,0.00,WUHU216HW,2013-05-22 06:25:00,
2013-05-22 01:30:00,66.9,57.2,29.87,North,0,0.0,0.0,71,0.00,,,0.00,WUHU216HW,2013-05-22 06:30:00,
2013-05-22 01:35:00,66.7,57.0,29.87,North,0,0.0,0.0,71,0.00,,,0.00,WUHU216HW,2013-05-22 06:35:00,
2013-05-22 01:40:00,66.3,56.6,29.86,North,0,0.0,0.0,71,0.00,,,0.00,WUHU216HW,2013-05-22 06:40:00,
2013-05-22 01:45:00,66.0,56.7,29.86,North,0,0.0,0.0,72,0.00,,,0.00,WUHU216HW,2013-05-22 06:45:00,
2013-05-22 01:50:00,65.8,56.5,29.86,North,0,0.0,0.0,72,0.00,,,0.00,WUHU216HW,2013-05-22 06:50:00,
2013-05-22 01:55:00,65.4,56.2,29.86,North,0,0.0,0.0,72,0.00,,,0.00,WUHU216HW,2013-05-22 06:55:00,
2013-05-22 02:00:00,65.3,56.4,29.85,North,0,0.0,0.0,73,0.00,,,0.00,WUHU216HW,2013-05-22 07:00:00,
2013-05-22 02:05:00,64.9,56.0,29.86,North,0,0.0,0.0,73,0.00,,,0.00,WUHU216HW,2013-05-22 07:05:00,
2013-05-22 02:10:00,64.5,56.1,29.86,North,0,0.0,0.0,74,0.00,,,0.00,WUHU216HW,2013-05-22 07:10:00,
2013-05-22 02:15:00,64.5,56.1,29.85,North,0,0.0,0.0,74,0.00,,,0.00,WUHU216HW,2013-05-22 07:15:00,
2013-05-22 02:20:00,64.5,56.1,29.85,North,0,0.0,0.0,75,0.00,,,0.00,WUHU216HW,2013-05-22 07:20:00,
2013-05-22 02:25:00,64.5,56.1,29.85,North,0,0.0,0.0,76,0.00,,,0.00,WUHU216HW,2013-05-22 07:25:00,
2013-05-22 02:30:00,64.5,56.1,29.85,North,0,0.0,0.0,76,0.00,,,0.00,WUHU216HW,2013-05-22 07:30:00,
2013-05-22 02:35:00,64.5,56.1,29.85,North,0,0.0,0.0,77,0.00,,,0.00,WUHU216HW,2013-05-22 07:35:00,
2013-05-22 02:40:00,64.5,56.1,29.85,North,0,0.0,0.0,77,0.00,,,0.00,WUHU216HW,2013-05-22 07:40:00,
2013-05-22 02:45:00,64.7,57.3,29.85,North,0,0.0,0.0,78,0.00,,,0.00,WUHU216HW,2013-05-22 07:45:00,
2013-05-22 02:50:00,64.9,57.9,29.85,North,0,0.0,0.0,78,0.00,,,0.00,WUHU216HW,2013-05-22 07:50:00,
2013-05-22 02:55:00,64.9,57.9,29.85,North,0,0.0,0.0,78,0.00,,,0.00,WUHU216HW,2013-05-22 07:55:00,
2013-05-22 03:00:00,64.7,57.7,29.85,North,0,0.0,0.0,77,0.00,,,0.00,WUHU216HW,2013-05-22 08:00:00,
2013-05-22 03:05:00,64.7,57.7,29.85,North,0,0.0,0.0,78,0.00,,,0.00,WUHU216HW,2013-05-22 08:05:00,
2013-05-22 03:10:00,64.4,57.3,29.84,North,0,0.0,0.0,78,0.00,,,0.00,WUHU216HW,2013-05-22 08:10:00,
2013-05-22 03:15:00,64.2,57.2,29.84,North,0,0.0,0.0,78,0.00,,,0.00,WUHU216HW,2013-05-22 08:15:00,
2013-05-22 03:20:00,64.0,57.0,29.84,North,0,0.0,0.0,78,0.00,,,0.00,WUHU216HW,2013-05-22 08:20:00,
2013-05-22 03:25:00,63.6,56.6,29.84,North,0,0.0,0.0,78,0.00,,,0.00,WUHU216HW,2013-05-22 08:25:00,
2013-05-22 03:30:00,63.3,56.6,29.84,North,0,0.0,0.0,79,0.00,,,0.00,WUHU216HW,2013-05-22 08:30:00,
2013-05-22 03:35:00,62.9,56.3,29.84,North,0,0.0,0.0,79,0.00,,,0.00,WUHU216HW,2013-05-22 08:35:00,
2013-05-22 03:40:00,62.4,55.7,29.84,North,0,0.0,0.0,79,0.00,,,0.00,WUHU216HW,2013-05-22 08:40:00,
2013-05-22 03:45:00,62.4,55.7,29.84,North,0,0.0,0.0,79,0.00,,,0.00,WUHU216HW,2013-05-22 08:45:00,
2013-05-22 04:15:00,59.7,53.9,29.83,North,0,0.0,0.0,81,0.00,,,0.00,WUHU216HW,2013-05-22 09:15:00,
2013-05-22 04:34:00,58.8,53.6,29.83,North,0,0.0,0.0,83,0.00,,,0.00,WUHU216HW,2013-05-22 09:34:00,
2013-05-22 04:39:00,58.6,53.4,29.83,North,0,0.0,0.0,83,0.00,,,0.00,WUHU216HW,2013-05-22 09:39:00,
2013-05-22 04:44:00,58.2,53.1,29.82,North,0,0.0,0.0,83,0.00,,,0.00,WUHU216HW,2013-05-22 09:44:00,
2013-05-22 04:49:00,57.9,52.7,29.82,North,0,0.0,0.0,83,0.00,,,0.00,WUHU216HW,2013-05-22 09:49:00,
2013-05-22 04:54:00,57.9,52.7,29.83,North,0,0.0,0.0,83,0.00,,,0.00,WUHU216HW,2013-05-22 09:54:00,
2013-05-22 04:59:00,57.5,52.7,29.83,North,0,0.0,0.0,84,0.00,,,0.00,WUHU216HW,2013-05-22 09:59:00,
2013-05-22 05:04:00,57.3,52.5,29.82,North,0,0.0,0.0,84,0.00,,,0.00,WUHU216HW,2013-05-22 10:04:00,
2013-05-22 05:09:00,57.3,52.5,29.83,North,0,0.0,0.0,85,0.00,,,0.00,WUHU216HW,2013-05-22 10:09:00,
2013-05-22 05:14:00,57.2,52.7,29.83,North,0,0.0,0.0,85,0.00,,,0.00,WUHU216HW,2013-05-22 10:14:00,
2013-05-22 05:19:00,57.0,52.5,29.83,North,0,0.0,0.0,85,0.00,,,0.00,WUHU216HW,2013-05-22 10:19:00,
2013-05-22 05:24:00,56.8,52.3,29.83,North,0,0.0,0.0,85,0.00,,,0.00,WUHU216HW,2013-05-22 10:24:00,
2013-05-22 05:29:00,56.8,52.3,29.84,North,0,0.0,0.0,85,0.00,,,0.00,WUHU216HW,2013-05-22 10:29:00,
2013-05-22 05:34:00,56.4,51.9,29.84,North,0,0.0,0.0,85,0.00,,,0.00,WUHU216HW,2013-05-22 10:34:00,
2013-05-22 05:39:00,56.4,51.9,29.84,North,0,0.0,0.0,85,0.00,,,0.00,WUHU216HW,2013-05-22 10:39:00,
2013-05-22 05:44:00,56.3,51.8,29.83,North,0,0.0,0.0,85,0.00,,,0.00,WUHU216HW,2013-05-22 10:44:00,
2013-05-22 05:49:00,56.1,51.6,29.83,North,0,0.0,0.0,86,0.00,,,0.00,WUHU216HW,2013-05-22 10:49:00,
2013-05-22 05:54:00,56.1,51.6,29.84,North,0,0.0,0.0,86,0.00,,,0.00,WUHU216HW,2013-05-22 10:54:00,
2013-05-22 05:59:00,55.9,51.7,29.84,North,0,0.0,0.0,86,0.00,,,0.00,WUHU216HW,2013-05-22 10:59:00,
2013-05-22 06:04:00,55.9,51.7,29.84,North,0,0.0,0.0,86,0.00,,,0.00,WUHU216HW,2013-05-22 11:04:00,
2013-05-22 06:09:00,55.7,51.5,29.84,North,0,0.0,0.0,86,0.00,,,0.00,WUHU216HW,2013-05-22 11:09:00,
2013-05-22 06:14:00,55.5,51.4,29.84,North,0,0.0,0.0,86,0.00,,,0.00,WUHU216HW,2013-05-22 11:14:00,
2013-05-22 06:19:00,55.2,51.0,29.84,North,0,0.0,0.0,86,0.00,,,0.00,WUHU216HW,2013-05-22 11:19:00,
2013-05-22 06:24:00,55.2,51.0,29.84,North,0,0.0,0.0,86,0.00,,,0.00,WUHU216HW,2013-05-22 11:24:00,
2013-05-22 06:29:00,55.0,50.8,29.84,North,0,0.0,0.0,86,0.00,,,0.00,WUHU216HW,2013-05-22 11:29:00,
2013-05-22 06:34:00,55.0,50.8,29.85,North,0,0.0,0.0,86,0.00,,,0.00,WUHU216HW,2013-05-22 11:34:00,
2013-05-22 06:39:00,55.0,50.8,29.85,North,0,0.0,0.0,87,0.00,,,0.00,WUHU216HW,2013-05-22 11:39:00,
2013-05-22 06:44:00,54.8,51.0,29.85,North,0,0.0,0.0,87,0.00,,,0.00,WUHU216HW,2013-05-22 11:44:00,
2013-05-22 06:49:00,54.6,50.8,29.85,North,0,0.0,0.0,87,0.00,,,0.00,WUHU216HW,2013-05-22 11:49:00,
2013-05-22 06:54:00,54.6,50.8,29.85,North,0,0.0,0.0,87,0.00,,,0.00,WUHU216HW,2013-05-22 11:54:00,
2013-05-22 06:59:00,54.6,50.8,29.85,North,0,0.0,0.0,87,0.00,,,0.00,WUHU216HW,2013-05-22 11:59:00,
2013-05-22 07:04:00,54.8,51.0,29.85,North,0,0.0,0.0,87,0.00,,,0.00,WUHU216HW,2013-05-22 12:04:00,
2013-05-22 07:09:00,55.0,51.2,29.85,North,0,0.0,0.0,87,0.00,,,0.00,WUHU216HW,2013-05-22 12:09:00,
2013-05-22 07:14:00,55.2,51.3,29.85,North,0,0.0,0.0,87,0.00,,,0.00,WUHU216HW,2013-05-22 12:14:00,
2013-05-22 07:19:00,55.5,51.7,29.86,North,0,0.0,0.0,87,0.00,,,0.00,WUHU216HW,2013-05-22 12:19:00,
2013-05-22 07:24:00,56.1,52.5,29.85,North,0,0.0,0.0,88,0.00,,,0.00,WUHU216HW,2013-05-22 12:24:00,
2013-05-22 07:29:00,56.1,52.5,29.85,North,0,0.0,0.0,88,0.00,,,0.00,WUHU216HW,2013-05-22 12:29:00,
2013-05-22 07:39:00,58.6,55.1,29.86,North,0,0.0,0.0,88,0.00,,,0.00,WUHU216HW,2013-05-22 12:39:00,
2013-05-22 07:44:00,59.7,56.1,29.86,North,0,0.0,0.0,88,0.00,,,0.00,WUHU216HW,2013-05-22 12:44:00,
2013-05-22 07:49:00,60.9,57.4,29.86,North,0,0.0,0.0,88,0.00,,,0.00,WUHU216HW,2013-05-22 12:49:00,
2013-05-22 07:54:00,61.7,58.1,29.86,North,0,0.0,0.0,88,0.00,,,0.00,WUHU216HW,2013-05-22 12:54:00,
2013-05-22 07:59:00,62.0,58.5,29.86,North,0,0.0,0.0,88,0.00,,,0.00,WUHU216HW,2013-05-22 12:59:00,
2013-05-22 08:04:00,62.2,58.6,29.86,North,0,0.0,0.0,88,0.00,,,0.00,WUHU216HW,2013-05-22 13:04:00,
2013-05-22 08:09:00,62.9,58.7,29.87,North,0,0.0,0.0,86,0.00,,,0.00,WUHU216HW,2013-05-22 13:09:00,
2013-05-22 08:14:00,63.6,57.0,29.87,North,0,0.0,0.0,79,0.00,,,0.00,WUHU216HW,2013-05-22 13:14:00,
2013-05-22 08:19:00,64.4,57.3,29.87,North,0,0.0,0.0,78,0.00,,,0.00,WUHU216HW,2013-05-22 13:19:00,
2013-05-22 08:24:00,64.4,57.3,29.87,North,0,0.0,0.0,78,0.00,,,0.00,WUHU216HW,2013-05-22 13:24:00,
2013-05-22 08:29:00,66.5,58.3,29.87,North,0,0.0,0.0,75,0.00,,,0.00,WUHU216HW,2013-05-22 13:29:00,
2013-05-22 08:35:00,67.4,58.1,29.87,North,0,0.0,0.0,72,0.00,,,0.00,WUHU216HW,2013-05-22 13:35:00,
2013-05-22 08:40:00,68.9,58.7,29.87,North,0,0.0,0.0,70,0.00,,,0.00,WUHU216HW,2013-05-22 13:40:00,
2013-05-22 08:45:00,69.4,59.2,29.87,North,0,0.0,0.0,70,0.00,,,0.00,WUHU216HW,2013-05-22 13:45:00,
2013-05-22 08:50:00,69.4,59.2,29.87,North,0,0.0,0.0,70,0.00,,,0.00,WUHU216HW,2013-05-22 13:50:00,
2013-05-22 09:04:00,73.0,57.8,29.89,North,0,0.0,0.0,59,0.00,,,0.00,WUHU216HW,2013-05-22 14:04:00,
2013-05-22 09:09:00,73.2,55.9,29.89,North,0,0.0,0.0,55,0.00,,,0.00,WUHU216HW,2013-05-22 14:09:00,
2013-05-22 09:14:00,73.2,55.9,29.89,North,0,0.0,0.0,55,0.00,,,0.00,WUHU216HW,2013-05-22 14:14:00,
2013-05-22 10:21:00,80.7,57.3,29.90,North,0,0.0,0.0,45,0.00,,,0.00,WUHU216HW,2013-05-22 15:21:00,
2013-05-22 10:26:00,80.7,56.1,29.90,North,0,0.0,0.0,45,0.00,,,0.00,WUHU216HW,2013-05-22 15:26:00,
2013-05-22 10:31:00,81.3,56.6,29.90,North,0,0.0,0.0,43,0.00,,,0.00,WUHU216HW,2013-05-22 15:31:00,
2013-05-22 10:36:00,81.8,57.7,29.90,North,0,0.0,0.0,44,0.00,,,0.00,WUHU216HW,2013-05-22 15:36:00,
2013-05-22 10:41:00,82.2,56.8,29.91,North,0,0.0,0.0,42,0.00,,,0.00,WUHU216HW,2013-05-22 15:41:00,
2013-05-22 10:46:00,82.0,57.2,29.90,North,0,0.0,0.0,43,0.00,,,0.00,WUHU216HW,2013-05-22 15:46:00,
2013-05-22 10:51:00,82.2,58.0,29.90,North,0,0.0,0.0,44,0.00,,,0.00,WUHU216HW,2013-05-22 15:51:00,
2013-05-22 10:56:00,82.9,58.1,29.90,North,0,0.0,0.0,43,0.00,,,0.00,WUHU216HW,2013-05-22 15:56:00,
2013-05-22 11:01:00,84.0,58.4,29.90,North,0,0.0,0.0,42,0.00,,,0.00,WUHU216HW,2013-05-22 16:01:00,
2013-05-22 11:06:00,84.3,57.5,29.91,North,0,0.0,0.0,40,0.00,,,0.00,WUHU216HW,2013-05-22 16:06:00,
2013-05-22 11:11:00,85.1,58.1,29.90,North,0,0.0,0.0,40,0.00,,,0.00,WUHU216HW,2013-05-22 16:11:00,
2013-05-22 11:16:00,85.6,57.0,29.90,North,0,0.0,0.0,38,0.00,,,0.00,WUHU216HW,2013-05-22 16:16:00,
2013-05-22 11:21:00,85.8,57.2,29.90,North,0,0.0,0.0,36,0.00,,,0.00,WUHU216HW,2013-05-22 16:21:00,
2013-05-22 11:26:00,86.1,56.7,29.90,North,0,0.0,0.0,37,0.00,,,0.00,WUHU216HW,2013-05-22 16:26:00,
2013-05-22 11:31:00,87.4,58.6,29.90,North,0,0.0,0.0,38,0.00,,,0.00,WUHU216HW,2013-05-22 16:31:00,
2013-05-22 11:36:00,87.9,56.7,29.90,North,0,0.0,0.0,35,0.00,,,0.00,WUHU216HW,2013-05-22 16:36:00,
2013-05-22 11:41:00,89.0,56.8,29.90,North,0,0.0,0.0,34,0.00,,,0.00,WUHU216HW,2013-05-22 16:41:00,
2013-05-22 11:46:00,89.2,56.2,29.90,North,0,0.0,0.0,34,0.00,,,0.00,WUHU216HW,2013-05-22 16:46:00,
2013-05-22 11:51:00,90.6,58.2,29.90,North,0,0.0,0.0,34,0.00,,,0.00,WUHU216HW,2013-05-22 16:51:00,
2013-05-22 11:56:00,90.6,58.2,29.90,North,0,0.0,0.0,29,0.00,,,0.00,WUHU216HW,2013-05-22 16:56:00,
2013-05-22 12:01:00,89.7,55.8,29.90,North,0,0.0,0.0,32,0.00,,,0.00,WUHU216HW,2013-05-22 17:01:00,
2013-05-22 12:06:00,88.8,55.0,29.90,North,0,0.0,0.0,32,0.00,,,0.00,WUHU216HW,2013-05-22 17:06:00,
2013-05-22 12:11:00,89.2,56.2,29.90,North,0,0.0,0.0,33,0.00,,,0.00,WUHU216HW,2013-05-22 17:11:00,
2013-05-22 12:16:00,89.7,58.2,29.90,North,0,0.0,0.0,35,0.00,,,0.00,WUHU216HW,2013-05-22 17:16:00,
2013-05-22 12:21:00,90.3,57.9,29.90,North,0,0.0,0.0,34,0.00,,,0.00,WUHU216HW,2013-05-22 17:21:00,
2013-05-22 12:26:00,91.0,59.3,29.90,North,0,0.0,0.0,35,0.00,,,0.00,WUHU216HW,2013-05-22 17:26:00,
2013-05-22 12:31:00,92.3,59.6,29.90,North,0,0.0,0.0,34,0.00,,,0.00,WUHU216HW,2013-05-22 17:31:00,
2013-05-22 12:36:00,92.6,58.3,29.90,North,0,0.0,0.0,31,0.00,,,0.00,WUHU216HW,2013-05-22 17:36:00,
2013-05-22 12:41:00,92.1,57.9,29.90,North,0,0.0,0.0,32,0.00,,,0.00,WUHU216HW,2013-05-22 17:41:00,
2013-05-22 12:46:00,91.9,56.1,29.90,North,0,0.0,0.0,30,0.00,,,0.00,WUHU216HW,2013-05-22 17:46:00,
2013-05-22 12:51:00,91.4,58.1,29.90,North,0,0.0,0.0,33,0.00,,,0.00,WUHU216HW,2013-05-22 17:51:00,
2013-05-22 12:56:00,92.4,57.4,29.90,North,0,0.0,0.0,31,0.00,,,0.00,WUHU216HW,2013-05-22 17:56:00,
2013-05-22 13:01:00,92.8,56.9,29.90,North,0,0.0,0.0,31,0.00,,,0.00,WUHU216HW,2013-05-22 18:01:00,
2013-05-22 13:06:00,92.6,58.3,29.89,North,0,0.0,0.0,32,0.00,,,0.00,WUHU216HW,2013-05-22 18:06:00,
2013-05-22 13:11:00,92.6,58.3,29.89,North,0,0.0,0.0,31,0.00,,,0.00,WUHU216HW,2013-05-22 18:11:00,
2013-05-22 13:16:00,92.8,56.9,29.89,North,0,0.0,0.0,33,0.00,,,0.00,WUHU216HW,2013-05-22 18:16:00,
2013-05-22 13:21:00,93.5,58.3,29.89,North,0,0.0,0.0,31,0.00,,,0.00,WUHU216HW,2013-05-22 18:21:00,
2013-05-22 13:27:00,94.2,58.9,29.89,North,0,0.0,0.0,31,0.00,,,0.00,WUHU216HW,2013-05-22 18:27:00,
2013-05-22 13:32:00,94.8,58.6,29.88,North,0,0.0,0.0,30,0.00,,,0.00,WUHU216HW,2013-05-22 18:32:00,
2013-05-22 13:37:00,94.6,59.3,29.88,North,0,0.0,0.0,31,0.00,,,0.00,WUHU216HW,2013-05-22 18:37:00,
2013-05-22 13:42:00,95.1,59.7,29.88,North,0,0.0,0.0,31,0.00,,,0.00,WUHU216HW,2013-05-22 18:42:00,
2013-05-22 13:47:00,95.5,60.0,29.88,North,0,0.0,0.0,31,0.00,,,0.00,WUHU216HW,2013-05-22 18:47:00,
2013-05-22 13:52:00,95.5,60.0,29.87,North,0,0.0,0.0,32,0.00,,,0.00,WUHU216HW,2013-05-22 18:52:00,
2013-05-22 13:57:00,95.7,58.2,29.87,North,0,0.0,0.0,31,0.00,,,0.00,WUHU216HW,2013-05-22 18:57:00,
2013-05-22 14:02:00,96.6,61.7,29.87,North,0,0.0,0.0,32,0.00,,,0.00,WUHU216HW,2013-05-22 19:02:00,
2013-05-22 14:07:00,97.7,61.9,29.87,North,0,0.0,0.0,31,0.00,,,0.00,WUHU216HW,2013-05-22 19:07:00,
2013-05-22 14:12:00,96.9,60.4,29.87,North,0,0.0,0.0,30,0.00,,,0.00,WUHU216HW,2013-05-22 19:12:00,
2013-05-22 14:17:00,96.4,59.9,29.87,North,0,0.0,0.0,30,0.00,,,0.00,WUHU216HW,2013-05-22 19:17:00,
2013-05-22 14:22:00,96.6,61.7,29.87,North,0,0.0,0.0,32,0.00,,,0.00,WUHU216HW,2013-05-22 19:22:00,
2013-05-22 14:27:00,96.6,61.7,29.87,North,0,0.0,0.0,32,0.00,,,0.00,WUHU216HW,2013-05-22 19:27:00,
2013-05-22 14:40:00,96.8,61.0,29.86,North,0,0.0,0.0,32,0.00,,,0.00,WUHU216HW,2013-05-22 19:40:00,
2013-05-22 14:45:00,96.9,61.2,29.86,North,0,0.0,0.0,32,0.00,,,0.00,WUHU216HW,2013-05-22 19:45:00,
2013-05-22 14:50:00,96.4,63.2,29.86,North,0,0.0,0.0,34,0.00,,,0.00,WUHU216HW,2013-05-22 19:50:00,
2013-05-22 14:55:00,96.8,61.9,29.86,North,0,0.0,0.0,32,0.00,,,0.00,WUHU216HW,2013-05-22 19:55:00,
2013-05-22 15:00:00,97.1,62.2,29.85,North,0,0.0,0.0,32,0.00,,,0.00,WUHU216HW,2013-05-22 20:00:00,
2013-05-22 15:05:00,97.5,62.5,29.85,North,0,0.0,0.0,32,0.00,,,0.00,WUHU216HW,2013-05-22 20:05:00,
2013-05-22 15:10:00,97.5,62.5,29.85,North,0,0.0,0.0,32,0.00,,,0.00,WUHU216HW,2013-05-22 20:10:00,
2013-05-22 15:15:00,97.5,62.5,29.84,North,0,0.0,0.0,33,0.00,,,0.00,WUHU216HW,2013-05-22 20:15:00,
2013-05-22 15:20:00,97.8,63.7,29.84,North,0,0.0,0.0,33,0.00,,,0.00,WUHU216HW,2013-05-22 20:20:00,
2013-05-22 15:25:00,96.9,62.9,29.84,North,0,0.0,0.0,33,0.00,,,0.00,WUHU216HW,2013-05-22 20:25:00,
2013-05-22 15:30:00,96.2,63.1,29.84,North,0,0.0,0.0,34,0.00,,,0.00,WUHU216HW,2013-05-22 20:30:00,
2013-05-22 15:35:00,96.4,63.2,29.83,North,0,0.0,0.0,34,0.00,,,0.00,WUHU216HW,2013-05-22 20:35:00,
2013-05-22 15:40:00,96.6,62.5,29.83,North,0,0.0,0.0,33,0.00,,,0.00,WUHU216HW,2013-05-22 20:40:00,
2013-05-22 15:45:00,96.9,65.3,29.83,North,0,0.0,0.0,36,0.00,,,0.00,WUHU216HW,2013-05-22 20:45:00,
2013-05-22 15:50:00,97.5,63.3,29.83,North,0,0.0,0.0,33,0.00,,,0.00,WUHU216HW,2013-05-22 20:50:00,
2013-05-22 15:55:00,95.7,62.6,29.83,North,0,0.0,0.0,34,0.00,,,0.00,WUHU216HW,2013-05-22 20:55:00,
2013-05-22 16:00:00,96.0,62.9,29.82,North,0,0.0,0.0,34,0.00,,,0.00,WUHU216HW,2013-05-22 21:00:00,
2013-05-22 16:05:00,96.6,63.4,29.82,North,0,0.0,0.0,33,0.00,,,0.00,WUHU216HW,2013-05-22 21:05:00,
2013-05-22 16:10:00,96.8,61.9,29.82,North,0,0.0,0.0,33,0.00,,,0.00,WUHU216HW,2013-05-22 21:10:00,
2013-05-22 16:15:00,96.4,63.2,29.82,North,0,0.0,0.0,34,0.00,,,0.00,WUHU216HW,2013-05-22 21:15:00,
2013-05-22 16:20:00,96.4,64.0,29.82,North,0,0.0,0.0,35,0.00,,,0.00,WUHU216HW,2013-05-22 21:20:00,
2013-05-22 16:25:00,96.4,63.2,29.82,North,0,0.0,0.0,34,0.00,,,0.00,WUHU216HW,2013-05-22 21:25:00,
2013-05-22 16:30:00,96.0,64.6,29.82,North,0,0.0,0.0,36,0.00,,,0.00,WUHU216HW,2013-05-22 21:30:00,
2013-05-22 16:35:00,96.4,64.0,29.81,North,0,0.0,0.0,35,0.00,,,0.00,WUHU216HW,2013-05-22 21:35:00,
2013-05-22 16:40:00,97.3,64.0,29.81,North,0,0.0,0.0,34,0.00,,,0.00,WUHU216HW,2013-05-22 21:40:00,
2013-05-22 16:45:00,97.5,65.8,29.81,North,0,0.0,0.0,33,0.00,,,0.00,WUHU216HW,2013-05-22 21:45:00,
2013-05-22 16:50:00,96.6,63.4,29.80,North,0,0.0,0.0,34,0.00,,,0.00,WUHU216HW,2013-05-22 21:50:00,
2013-05-22 16:55:00,96.2,64.7,29.79,North,0,0.0,0.0,36,0.00,,,0.00,WUHU216HW,2013-05-22 21:55:00,
2013-05-22 17:00:00,96.2,64.7,29.79,North,0,0.0,0.0,36,0.00,,,0.00,WUHU216HW,2013-05-22 22:00:00,
2013-05-22 17:05:00,95.7,63.4,29.79,North,0,0.0,0.0,35,0.00,,,0.00,WUHU216HW,2013-05-22 22:05:00,
2013-05-22 17:10:00,95.7,63.4,29.79,North,0,0.0,0.0,35,0.00,,,0.00,WUHU216HW,2013-05-22 22:10:00,
2013-05-22 17:15:00,95.7,63.4,29.79,North,0,0.0,0.0,37,0.00,,,0.00,WUHU216HW,2013-05-22 22:15:00,
2013-05-22 17:20:00,95.3,63.1,29.79,North,0,0.0,0.0,35,0.00,,,0.00,WUHU216HW,2013-05-22 22:20:00,
2013-05-22 17:25:00,95.0,64.4,29.79,North,0,0.0,0.0,36,0.00,,,0.00,WUHU216HW,2013-05-22 22:25:00,
2013-05-22 17:30:00,94.8,65.1,29.79,North,0,0.0,0.0,38,0.00,,,0.00,WUHU216HW,2013-05-22 22:30:00,
2013-05-22 17:35:00,94.8,65.1,29.79,North,0,0.0,0.0,38,0.00,,,0.00,WUHU216HW,2013-05-22 22:35:00,
2013-05-22 17:50:00,92.6,66.7,29.79,North,0,0.0,0.0,43,0.00,,,0.00,WUHU216HW,2013-05-22 22:50:00,
2013-05-22 17:55:00,92.4,66.5,29.79,North,0,0.0,0.0,42,0.00,,,0.00,WUHU216HW,2013-05-22 22:55:00,
2013-05-22 18:00:00,91.7,66.5,29.79,North,0,0.0,0.0,44,0.00,,,0.00,WUHU216HW,2013-05-22 23:00:00,
2013-05-22 18:05:00,91.5,65.7,29.79,North,0,0.0,0.0,43,0.00,,,0.00,WUHU216HW,2013-05-22 23:05:00,
2013-05-22 18:10:00,91.0,65.9,29.79,North,0,0.0,0.0,44,0.00,,,0.00,WUHU216HW,2013-05-22 23:10:00,
2013-05-22 18:15:00,91.0,65.9,29.79,North,0,0.0,0.0,45,0.00,,,0.00,WUHU216HW,2013-05-22 23:15:00,
2013-05-22 18:20:00,90.6,67.5,29.79,North,0,0.0,0.0,47,0.00,,,0.00,WUHU216HW,2013-05-22 23:20:00,
2013-05-22 18:25:00,90.3,67.8,29.79,North,0,0.0,0.0,48,0.00,,,0.00,WUHU216HW,2013-05-22 23:25:00,
2013-05-22 18:30:00,89.9,67.5,29.79,North,0,0.0,0.0,48,0.00,,,0.00,WUHU216HW,2013-05-22 23:30:00,
2013-05-22 18:35:00,89.4,67.7,29.79,North,0,0.0,0.0,49,0.00,,,0.00,WUHU216HW,2013-05-22 23:35:00,
2013-05-22 18:40:00,89.2,68.2,29.79,North,0,0.0,0.0,50,0.00,,,0.00,WUHU216HW,2013-05-22 23:40:00,
2013-05-22 18:45:00,88.8,68.4,29.79,North,0,0.0,0.0,51,0.00,,,0.00,WUHU216HW,2013-05-22 23:45:00,
2013-05-22 18:50:00,88.5,67.5,29.79,North,0,0.0,0.0,50,0.00,,,0.00,WUHU216HW,2013-05-22 23:50:00,
2013-05-22 18:55:00,88.3,68.4,29.79,North,0,0.0,0.0,52,0.00,,,0.00,WUHU216HW,2013-05-22 23:55:00,
2013-05-22 19:00:00,87.9,68.1,29.79,North,0,0.0,0.0,52,0.00,,,0.00,WUHU216HW,2013-05-23 00:00:00,
2013-05-22 19:05:00,87.6,68.3,29.79,North,0,0.0,0.0,53,0.00,,,0.00,WUHU216HW,2013-05-23 00:05:00,
2013-05-22 19:10:00,87.4,68.2,29.79,North,0,0.0,0.0,53,0.00,,,0.00,WUHU216HW,2013-05-23 00:10:00,
2013-05-22 19:15:00,87.0,68.4,29.79,North,0,0.0,0.0,54,0.00,,,0.00,WUHU216HW,2013-05-23 00:15:00,
2013-05-22 19:20:00,86.7,68.0,29.79,North,0,0.0,0.0,54,0.00,,,0.00,WUHU216HW,2013-05-23 00:20:00,
2013-05-22 19:25:00,86.5,67.8,29.79,North,0,0.0,0.0,54,0.00,,,0.00,WUHU216HW,2013-05-23 00:25:00,
2013-05-22 19:30:00,86.1,68.0,29.79,North,0,0.0,0.0,55,0.00,,,0.00,WUHU216HW,2013-05-23 00:30:00,
2013-05-22 19:35:00,86.1,68.0,29.79,North,0,0.0,0.0,55,0.00,,,0.00,WUHU216HW,2013-05-23 00:35:00,
2013-05-22 20:20:00,82.7,67.9,29.80,North,0,0.0,0.0,61,0.00,,,0.00,WUHU216HW,2013-05-23 01:20:00,
2013-05-22 20:25:00,82.5,68.1,29.80,North,0,0.0,0.0,62,0.00,,,0.00,WUHU216HW,2013-05-23 01:25:00,
2013-05-22 20:30:00,82.5,68.1,29.80,North,0,0.0,0.0,62,0.00,,,0.00,WUHU216HW,2013-05-23 01:30:00,
2013-05-22 20:43:00,81.3,67.4,29.82,North,0,0.0,0.0,64,0.00,,,0.00,WUHU216HW,2013-05-23 01:43:00,
2013-05-22 20:48:00,80.9,68.0,29.82,North,0,0.0,0.0,65,0.00,,,0.00,WUHU216HW,2013-05-23 01:48:00,
2013-05-22 20:53:00,80.4,67.5,29.83,North,0,0.0,0.0,65,0.00,,,0.00,WUHU216HW,2013-05-23 01:53:00,
2013-05-22 20:58:00,80.2,67.3,29.83,North,0,0.0,0.0,65,0.00,,,0.00,WUHU216HW,2013-05-23 01:58:00,
2013-05-22 21:03:00,80.2,67.3,29.83,North,0,0.0,0.0,66,0.00,,,0.00,WUHU216HW,2013-05-23 02:03:00,
2013-05-22 21:08:00,79.8,67.4,29.84,North,0,0.0,0.0,66,0.00,,,0.00,WUHU216HW,2013-05-23 02:08:00,
2013-05-22 21:13:00,79.5,67.5,29.83,North,0,0.0,0.0,67,0.00,,,0.00,WUHU216HW,2013-05-23 02:13:00,
2013-05-22 21:18:00,79.3,67.4,29.84,North,0,0.0,0.0,67,0.00,,,0.00,WUHU216HW,2013-05-23 02:18:00,
2013-05-22 21:23:00,79.1,67.6,29.83,North,0,0.0,0.0,69,0.00,,,0.00,WUHU216HW,2013-05-23 02:23:00,
2013-05-22 21:28:00,78.9,67.9,29.84,North,0,0.0,0.0,69,0.00,,,0.00,WUHU216HW,2013-05-23 02:28:00,
2013-05-22 21:33:00,78.6,68.0,29.85,North,0,0.0,0.0,70,0.00,,,0.00,WUHU216HW,2013-05-23 02:33:00,
2013-05-22 21:38:00,78.6,68.0,29.84,North,0,0.0,0.0,70,0.00,,,0.00,WUHU216HW,2013-05-23 02:38:00,
2013-05-22 21:43:00,78.6,68.0,29.85,North,0,0.0,0.0,71,0.00,,,0.00,WUHU216HW,2013-05-23 02:43:00,
2013-05-22 21:48:00,78.6,68.0,29.85,North,0,0.0,0.0,71,0.00,,,0.00,WUHU216HW,2013-05-23 02:48:00,
2013-05-22 21:53:00,78.4,68.2,29.85,North,0,0.0,0.0,71,0.00,,,0.00,WUHU216HW,2013-05-23 02:53:00,
2013-05-22 21:58:00,78.4,68.2,29.85,North,0,0.0,0.0,71,0.00,,,0.00,WUHU216HW,2013-05-23 02:58:00,
2013-05-22 22:03:00,78.4,68.2,29.85,North,0,0.0,0.0,73,0.00,,,0.00,WUHU216HW,2013-05-23 03:03:00,
2013-05-22 22:08:00,78.4,68.2,29.85,North,0,0.0,0.0,73,0.00,,,0.00,WUHU216HW,2013-05-23 03:08:00,
2013-05-22 22:13:00,78.2,68.8,29.86,North,0,0.0,0.0,73,0.00,,,0.00,WUHU216HW,2013-05-23 03:13:00,
2013-05-22 22:18:00,78.0,69.0,29.86,North,0,0.0,0.0,74,0.00,,,0.00,WUHU216HW,2013-05-23 03:18:00,
2013-05-22 22:23:00,78.0,69.0,29.87,North,0,0.0,0.0,74,0.00,,,0.00,WUHU216HW,2013-05-23 03:23:00,
2013-05-22 22:28:00,77.9,68.9,29.87,North,0,0.0,0.0,74,0.00,,,0.00,WUHU216HW,2013-05-23 03:28:00,
2013-05-22 22:33:00,77.7,69.1,29.87,North,0,0.0,0.0,75,0.00,,,0.00,WUHU216HW,2013-05-23 03:33:00,
2013-05-22 22:38:00,77.7,69.1,29.87,North,0,0.0,0.0,76,0.00,,,0.00,WUHU216HW,2013-05-23 03:38:00,
2013-05-22 22:43:00,77.7,69.1,29.87,North,0,0.0,0.0,76,0.00,,,0.00,WUHU216HW,2013-05-23 03:43:00,
2013-05-22 22:48:00,77.7,69.1,29.88,North,0,0.0,0.0,76,0.00,,,0.00,WUHU216HW,2013-05-23 03:48:00,
2013-05-22 22:53:00,77.5,69.3,29.88,North,0,0.0,0.0,76,0.00,,,0.00,WUHU216HW,2013-05-23 03:53:00,
2013-05-22 22:58:00,77.5,69.3,29.88,North,0,0.0,0.0,77,0.00,,,0.00,WUHU216HW,2013-05-23 03:58:00,
2013-05-22 23:03:00,77.5,69.3,29.88,North,0,0.0,0.0,77,0.00,,,0.00,WUHU216HW,2013-05-23 04:03:00,
2013-05-22 23:08:00,77.5,69.3,29.88,North,0,0.0,0.0,77,0.00,,,0.00,WUHU216HW,2013-05-23 04:08:00,
2013-05-22 23:13:00,77.5,69.3,29.88,North,0,0.0,0.0,77,0.00,,,0.00,WUHU216HW,2013-05-23 04:13:00,
2013-05-22 23:18:00,77.3,69.5,29.88,North,0,0.0,0.0,77,0.00,,,0.00,WUHU216HW,2013-05-23 04:18:00,
2013-05-22 23:23:00,77.3,69.5,29.88,North,0,0.0,0.0,78,0.00,,,0.00,WUHU216HW,2013-05-23 04:23:00,
2013-05-22 23:28:00,77.3,69.5,29.88,North,0,0.0,0.0,78,0.00,,,0.00,WUHU216HW,2013-05-23 04:28:00,
2013-05-22 23:33:00,77.1,69.7,29.88,North,0,0.0,0.0,78,0.00,,,0.00,WUHU216HW,2013-05-23 04:33:00,
2013-05-22 23:38:00,77.1,69.7,29.88,North,0,0.0,0.0,78,0.00,,,0.00,WUHU216HW,2013-05-23 04:38:00,
2013-05-22 23:43:00,77.1,69.7,29.89,North,0,0.0,0.0,79,0.00,,,0.00,WUHU216HW,2013-05-23 04:43:00,
2013-05-22 23:48:00,77.1,69.7,29.89,North,0,0.0,0.0,79,0.00,,,0.00,WUHU216HW,2013-05-23 04:48:00,
2013-05-22 23:53:00,76.8,69.8,29.89,North,0,0.0,0.0,79,0.00,,,0.00,WUHU216HW,2013-05-23 04:53:00,
2013-05-22 23:58:00,76.6,70.0,29.88,North,0,0.0,0.0,80,0.00,,,0.00,WUHU216HW,2013-05-23 04:58:00,